createdAt,value
2019-02-23T00:01:51.372Z,9.48
2019-02-23T00:04:19.785Z,9.50
2019-02-23T00:06:48.175Z,10.25
2019-02-23T00:09:16.880Z,10.60
2019-02-23T00:11:45.286Z,10.25
2019-02-23T00:14:13.689Z,10.00
2019-02-23T00:16:42.090Z,10.50
2019-02-23T00:19:10.736Z,10.68
2019-02-23T00:21:39.226Z,13.13
2019-02-23T00:24:07.635Z,11.10
2019-02-23T00:26:36.072Z,13.00
2019-02-23T00:29:04.473Z,10.90
2019-02-23T00:31:32.937Z,13.93
2019-02-23T00:36:49.006Z,11.75
2019-02-23T00:39:17.406Z,12.60
2019-02-23T00:41:45.852Z,12.20
2019-02-23T00:44:14.261Z,11.53
2019-02-23T00:46:42.670Z,12.18
2019-02-23T00:49:11.070Z,13.38
2019-02-23T00:51:39.540Z,14.20
2019-02-23T00:54:07.938Z,12.55
2019-02-23T00:56:36.354Z,12.45
2019-02-23T00:59:04.758Z,13.45
2019-02-23T01:01:33.167Z,13.15
2019-02-23T01:04:01.622Z,12.88
2019-02-23T01:06:30.087Z,10.25
2019-02-23T01:08:58.493Z,8.88
2019-02-23T01:11:26.894Z,8.88
2019-02-23T01:13:55.386Z,11.40
2019-02-23T01:16:23.841Z,10.82
2019-02-23T01:18:52.236Z,10.35
2019-02-23T01:21:20.650Z,9.68
2019-02-23T01:23:49.064Z,10.03
2019-02-23T01:26:17.487Z,11.25
2019-02-23T01:28:45.865Z,15.30
2019-02-23T01:31:14.350Z,12.00
2019-02-23T01:33:42.746Z,15.23
2019-02-23T01:36:11.222Z,12.03
2019-02-23T01:38:39.810Z,17.80
2019-02-23T01:41:08.534Z,16.97
2019-02-23T01:43:36.916Z,22.50
2019-02-23T01:46:05.319Z,20.82
2019-02-23T01:48:34.036Z,21.90
2019-02-23T01:51:02.506Z,27.05
2019-02-23T01:53:30.995Z,20.25
2019-02-23T01:55:59.476Z,14.60
2019-02-23T01:58:27.870Z,13.83
2019-02-23T02:00:56.270Z,12.63
2019-02-23T02:03:24.859Z,13.65
2019-02-23T02:05:53.523Z,12.98
2019-02-23T02:08:21.899Z,11.05
2019-02-23T02:10:50.364Z,13.28
2019-02-23T02:13:18.993Z,11.18
2019-02-23T02:15:47.625Z,10.55
2019-02-23T02:18:16.289Z,12.37
2019-02-23T02:20:44.723Z,13.28
2019-02-23T02:23:13.206Z,11.10
2019-02-23T02:25:41.618Z,12.33
2019-02-23T02:28:10.001Z,12.63
2019-02-23T02:30:38.675Z,13.15
2019-02-23T02:33:07.378Z,11.60
2019-02-23T02:35:35.861Z,11.12
2019-02-23T02:38:04.499Z,10.98
2019-02-23T02:40:34.433Z,8.43
2019-02-23T02:43:02.854Z,10.65
2019-02-23T02:45:31.260Z,12.23
2019-02-23T02:47:59.641Z,13.60
2019-02-23T02:50:28.034Z,12.47
2019-02-23T02:52:56.443Z,9.35
2019-02-23T02:55:24.844Z,11.10
2019-02-23T02:57:53.351Z,10.70
2019-02-23T03:00:21.876Z,10.08
2019-02-23T03:02:50.305Z,9.28
2019-02-23T03:05:19.003Z,11.65
2019-02-23T03:07:47.375Z,11.65
2019-02-23T03:10:15.784Z,9.73
2019-02-23T03:12:44.239Z,11.38
2019-02-23T03:15:12.705Z,12.20
2019-02-23T03:17:41.363Z,11.80
2019-02-23T03:20:09.756Z,12.18
2019-02-23T03:22:38.176Z,16.52
2019-02-23T03:25:07.410Z,22.00
2019-02-23T03:27:35.867Z,19.70
2019-02-23T03:30:06.140Z,18.90
2019-02-23T03:32:34.811Z,20.35
2019-02-23T03:35:03.256Z,19.00
2019-02-23T03:37:33.364Z,17.57
2019-02-23T03:40:01.821Z,16.52
2019-02-23T03:42:30.218Z,17.55
2019-02-23T03:44:58.866Z,16.55
2019-02-23T03:47:27.271Z,17.90
2019-02-23T03:49:55.699Z,16.85
2019-02-23T03:52:24.119Z,16.48
2019-02-23T03:54:52.513Z,16.35
2019-02-23T03:57:20.936Z,17.20
2019-02-23T03:59:49.337Z,18.55
2019-02-23T04:02:17.738Z,16.40
2019-02-23T04:04:46.137Z,18.48
2019-02-23T04:07:14.548Z,14.87
2019-02-23T04:09:43.044Z,17.87
2019-02-23T04:12:11.446Z,16.25
2019-02-23T04:14:39.923Z,16.25
2019-02-23T04:17:08.315Z,15.13
2019-02-23T04:19:36.710Z,36.20
2019-02-23T04:22:05.137Z,14.87
2019-02-23T04:24:33.775Z,15.40
2019-02-23T04:27:02.182Z,16.12
2019-02-23T04:29:30.574Z,19.17
2019-02-23T04:31:58.982Z,18.02
2019-02-23T04:34:27.379Z,14.18
2019-02-23T04:36:55.775Z,16.45
2019-02-23T04:39:24.332Z,14.38
2019-02-23T04:41:52.731Z,13.10
2019-02-23T04:44:21.143Z,13.70
2019-02-23T04:46:49.543Z,12.30
2019-02-23T04:49:17.943Z,11.78
2019-02-23T04:51:46.349Z,12.73
2019-02-23T04:54:14.753Z,12.60
2019-02-23T04:56:43.218Z,12.70
2019-02-23T04:59:11.672Z,13.08
2019-02-23T05:01:40.161Z,12.58
2019-02-23T05:04:08.587Z,12.98
2019-02-23T05:06:37.044Z,13.68
2019-02-23T05:09:05.989Z,11.33
2019-02-23T05:11:34.385Z,12.15
2019-02-23T05:14:02.790Z,12.20
2019-02-23T05:16:31.181Z,12.37
2019-02-23T05:18:59.819Z,11.15
2019-02-23T05:21:28.231Z,10.40
2019-02-23T05:23:56.870Z,11.33
2019-02-23T05:26:25.282Z,10.50
2019-02-23T05:28:53.731Z,10.45
2019-02-23T05:31:22.364Z,11.35
2019-02-23T05:33:50.898Z,11.45
2019-02-23T05:36:19.294Z,11.55
2019-02-23T05:38:48.260Z,11.20
2019-02-23T05:41:16.658Z,10.60
2019-02-23T05:43:45.290Z,11.73
2019-02-23T05:46:13.697Z,10.45
2019-02-23T05:48:42.103Z,12.05
2019-02-23T05:51:10.734Z,12.75
2019-02-23T05:53:39.171Z,11.43
2019-02-23T05:56:07.561Z,12.15
2019-02-23T05:58:36.103Z,11.15
2019-02-23T06:01:04.505Z,10.85
2019-02-23T06:03:32.930Z,11.53
2019-02-23T06:06:01.435Z,12.80
2019-02-23T06:08:30.064Z,13.40
2019-02-23T06:10:58.735Z,10.93
2019-02-23T06:13:27.138Z,13.15
2019-02-23T06:15:55.783Z,12.35
2019-02-23T06:18:24.195Z,12.30
2019-02-23T06:20:52.598Z,12.18
2019-02-23T06:23:21.247Z,11.95
2019-02-23T06:25:49.672Z,12.58
2019-02-23T06:28:18.077Z,12.93
2019-02-23T06:30:46.468Z,12.00
2019-02-23T06:33:15.026Z,11.70
2019-02-23T06:35:43.425Z,12.00
2019-02-23T06:38:11.811Z,12.40
2019-02-23T06:40:40.458Z,12.75
2019-02-23T06:43:08.880Z,10.78
2019-02-23T06:45:37.530Z,13.30
2019-02-23T06:48:05.920Z,11.78
2019-02-23T06:50:37.316Z,13.22
2019-02-23T06:53:05.792Z,11.30
2019-02-23T06:55:34.422Z,12.37
2019-02-23T06:58:03.062Z,12.03
2019-02-23T07:00:31.617Z,11.25
2019-02-23T07:03:00.010Z,12.10
2019-02-23T07:05:28.412Z,12.80
2019-02-23T07:07:56.810Z,11.78
2019-02-23T07:10:25.447Z,11.53
2019-02-23T07:12:54.221Z,12.28
2019-02-23T07:15:22.945Z,15.03
2019-02-23T07:17:51.587Z,12.88
2019-02-23T07:20:19.986Z,11.73
2019-02-23T07:22:48.725Z,12.13
2019-02-23T07:25:17.296Z,13.25
2019-02-23T07:27:45.689Z,11.57
2019-02-23T07:30:14.663Z,11.48
2019-02-23T07:32:43.161Z,13.45
2019-02-23T07:35:11.550Z,12.65
2019-02-23T07:37:41.901Z,13.72
2019-02-23T07:40:12.345Z,12.82
2019-02-23T07:42:40.749Z,12.98
2019-02-23T07:45:10.188Z,12.50
2019-02-23T07:47:38.821Z,12.33
2019-02-23T07:50:12.584Z,12.25
2019-02-23T07:52:40.982Z,12.13
2019-02-23T07:55:09.585Z,12.40
2019-02-23T07:57:37.988Z,13.40
2019-02-23T08:00:15.245Z,13.72
2019-02-23T08:02:43.975Z,13.18
2019-02-23T08:05:12.449Z,12.93
2019-02-23T08:07:41.116Z,13.75
2019-02-23T08:10:11.162Z,14.15
2019-02-23T08:12:39.894Z,13.03
2019-02-23T08:15:12.352Z,12.70
2019-02-23T08:17:40.746Z,13.20
2019-02-23T08:20:10.902Z,13.10
2019-02-23T08:22:39.392Z,14.20
2019-02-23T08:25:10.024Z,13.60
2019-02-23T08:27:38.436Z,13.37
2019-02-23T08:30:12.727Z,13.27
2019-02-23T08:32:41.180Z,13.30
2019-02-23T08:35:09.646Z,11.43
2019-02-23T08:37:38.051Z,13.43
2019-02-23T08:40:12.277Z,15.80
2019-02-23T08:42:40.765Z,14.77
2019-02-23T08:45:10.014Z,13.70
2019-02-23T08:47:38.703Z,13.33
2019-02-23T08:50:12.973Z,13.27
2019-02-23T08:52:48.546Z,13.80
2019-02-23T08:55:11.808Z,13.27
2019-02-23T08:57:40.304Z,14.50
2019-02-23T09:00:18.706Z,12.93
2019-02-23T09:02:47.263Z,14.03
2019-02-23T09:05:15.709Z,13.50
2019-02-23T09:07:44.112Z,13.50
2019-02-23T09:10:15.276Z,14.47
2019-02-23T09:12:43.760Z,13.73
2019-02-23T09:15:12.584Z,14.27
2019-02-23T09:17:41.223Z,14.50
2019-02-23T09:20:11.750Z,13.20
2019-02-23T09:22:40.417Z,13.80
2019-02-23T09:25:11.809Z,13.17
2019-02-23T09:27:40.285Z,13.40
2019-02-23T09:30:14.340Z,13.77
2019-02-23T09:32:42.782Z,11.27
2019-02-23T09:35:11.365Z,12.27
2019-02-23T09:37:39.828Z,13.50
2019-02-23T09:40:11.810Z,11.23
2019-02-23T09:42:40.445Z,12.57
2019-02-23T09:45:11.508Z,11.77
2019-02-23T09:47:40.353Z,12.33
2019-02-23T09:50:09.074Z,11.37
2019-02-23T09:52:37.511Z,12.23
2019-02-23T09:55:06.902Z,13.50
2019-02-23T09:57:35.538Z,12.07
2019-02-23T10:00:06.203Z,12.80
2019-02-23T10:02:34.683Z,12.43
2019-02-23T10:05:03.190Z,12.63
2019-02-23T10:07:32.814Z,11.80
2019-02-23T10:10:01.455Z,14.87
2019-02-23T10:12:29.903Z,12.33
2019-02-23T10:14:58.314Z,13.13
2019-02-23T10:17:28.506Z,13.03
2019-02-23T10:19:56.926Z,11.83
2019-02-23T10:22:25.508Z,12.50
2019-02-23T10:24:53.941Z,13.20
2019-02-23T10:27:22.398Z,12.60
2019-02-23T10:29:50.934Z,12.53
2019-02-23T10:32:19.479Z,13.87
2019-02-23T10:34:47.955Z,12.90
2019-02-23T10:37:16.382Z,13.07
2019-02-23T10:39:44.869Z,13.03
2019-02-23T10:42:13.373Z,10.90
2019-02-23T10:44:43.590Z,12.40
2019-02-23T10:47:12.049Z,12.27
2019-02-23T10:49:40.550Z,13.10
2019-02-23T10:52:11.986Z,11.70
2019-02-23T10:54:40.446Z,10.57
2019-02-23T10:57:09.162Z,11.33
2019-02-23T10:59:37.910Z,10.80
2019-02-23T11:02:06.661Z,11.73
2019-02-23T11:04:37.375Z,13.50
2019-02-23T11:07:12.569Z,12.67
2019-02-23T11:09:41.038Z,12.33
2019-02-23T11:12:09.507Z,11.00
2019-02-23T11:14:37.962Z,12.43
2019-02-23T11:17:06.603Z,12.27
2019-02-23T11:19:34.997Z,12.00
2019-02-23T11:22:03.564Z,10.70
2019-02-23T11:24:32.346Z,10.07
2019-02-23T11:27:01.002Z,12.30
2019-02-23T11:29:30.331Z,10.97
2019-02-23T11:31:59.083Z,11.73
2019-02-23T11:34:27.924Z,10.47
2019-02-23T11:36:56.684Z,11.77
2019-02-23T11:39:25.585Z,10.40
2019-02-23T11:41:57.105Z,9.90
2019-02-23T11:44:25.962Z,10.40
2019-02-23T11:47:00.650Z,11.50
2019-02-23T11:49:27.794Z,10.37
2019-02-23T11:51:56.198Z,8.90
2019-02-23T11:54:27.078Z,9.77
2019-02-23T11:56:55.509Z,10.70
2019-02-23T11:59:25.222Z,9.87
2019-02-23T12:01:53.682Z,10.57
2019-02-23T12:04:22.077Z,9.70
2019-02-23T12:06:50.502Z,9.60
2019-02-23T12:09:18.929Z,10.90
2019-02-23T12:11:49.155Z,11.13
2019-02-23T12:14:17.653Z,10.13
2019-02-23T12:16:46.315Z,10.47
2019-02-23T12:19:14.804Z,10.30
2019-02-23T12:21:43.233Z,10.07
2019-02-23T12:24:11.862Z,10.10
2019-02-23T12:26:40.333Z,10.50
2019-02-23T12:29:08.798Z,10.23
2019-02-23T12:31:37.298Z,9.93
2019-02-23T12:34:05.892Z,10.43
2019-02-23T12:36:34.401Z,10.77
2019-02-23T12:39:03.046Z,9.70
2019-02-23T12:41:31.501Z,10.63
2019-02-23T12:44:00.114Z,11.63
2019-02-23T12:46:28.608Z,12.20
2019-02-23T12:48:57.294Z,12.23
2019-02-23T12:51:25.698Z,10.93
2019-02-23T12:53:54.197Z,10.20
2019-02-23T12:56:22.672Z,10.67
2019-02-23T12:58:51.185Z,11.43
2019-02-23T13:01:19.682Z,11.03
2019-02-23T13:03:48.203Z,10.23
2019-02-23T13:06:16.752Z,11.10
2019-02-23T13:09:10.688Z,11.93
2019-02-23T13:11:39.100Z,10.30
2019-02-23T13:14:34.929Z,10.37
2019-02-23T13:17:09.092Z,10.47
2019-02-23T13:20:00.694Z,10.90
2019-02-23T13:22:35.150Z,11.00
2019-02-23T13:25:21.954Z,10.63
2019-02-23T13:27:56.146Z,10.60
2019-02-23T13:30:30.334Z,11.57
2019-02-23T13:33:11.172Z,9.63
2019-02-23T13:35:52.029Z,11.30
2019-02-23T13:38:43.090Z,10.20
2019-02-23T13:41:14.578Z,10.53
2019-02-23T13:44:03.754Z,10.60
2019-02-23T13:46:38.110Z,10.03
2019-02-23T13:49:28.992Z,10.27
2019-02-23T13:52:20.320Z,10.60
2019-02-23T13:55:25.006Z,10.80
2019-02-23T13:58:05.241Z,10.87
2019-02-23T14:00:48.722Z,10.87
2019-02-23T14:03:41.007Z,11.60
2019-02-23T14:06:24.795Z,10.47
2019-02-23T14:09:28.001Z,10.60
2019-02-23T14:12:16.009Z,11.00
2019-02-23T14:14:52.644Z,11.50
2019-02-23T14:17:42.102Z,10.87
2019-02-23T14:20:13.625Z,11.10
2019-02-23T14:22:45.123Z,9.90
2019-02-23T14:25:31.692Z,11.40
2019-02-23T14:28:27.303Z,10.27
2019-02-23T14:31:07.466Z,9.37
2019-02-23T14:34:00.349Z,10.30
2019-02-23T14:36:37.378Z,9.70
2019-02-23T14:39:13.086Z,12.43
2019-02-23T14:42:18.120Z,10.53
2019-02-23T14:45:10.856Z,10.82
2019-02-23T14:47:57.402Z,10.80
2019-02-23T14:50:31.763Z,11.97
2019-02-23T14:53:24.475Z,10.72
2019-02-23T14:55:56.040Z,11.00
2019-02-23T14:58:30.345Z,10.88
2019-02-23T15:01:17.298Z,10.70
2019-02-23T15:04:09.342Z,9.80
2019-02-23T15:07:14.239Z,9.75
2019-02-23T15:10:17.886Z,9.90
2019-02-23T15:13:10.334Z,9.68
2019-02-23T15:15:54.190Z,9.30
2019-02-23T15:18:37.406Z,11.35
2019-02-23T15:21:14.743Z,9.93
2019-02-23T15:24:07.180Z,10.95
2019-02-23T15:26:53.818Z,10.25
2019-02-23T15:29:43.389Z,10.10
2019-02-23T15:32:24.140Z,10.50
2019-02-23T15:35:14.246Z,9.83
2019-02-23T15:38:05.169Z,9.50
2019-02-23T15:41:08.175Z,9.78
2019-02-23T15:43:48.285Z,10.53
2019-02-23T15:46:46.274Z,10.10
2019-02-23T15:49:28.988Z,10.43
2019-02-23T15:51:57.886Z,9.78
2019-02-23T15:54:29.127Z,11.57
2019-02-23T15:56:56.804Z,10.70
2019-02-23T15:59:25.218Z,10.20
2019-02-23T16:01:54.179Z,11.80
2019-02-23T16:04:22.689Z,10.23
2019-02-23T16:06:51.169Z,9.60
2019-02-23T16:09:22.557Z,10.88
2019-02-23T16:11:51.123Z,9.93
2019-02-23T16:14:21.174Z,10.60
2019-02-23T16:16:49.744Z,11.88
2019-02-23T16:19:18.170Z,9.70
2019-02-23T16:21:46.734Z,12.15
2019-02-23T16:24:15.381Z,10.82
2019-02-23T16:26:43.976Z,11.97
2019-02-23T16:29:12.934Z,10.35
2019-02-23T16:31:41.600Z,11.83
2019-02-23T16:34:10.376Z,10.95
2019-02-23T16:36:38.919Z,9.45
2019-02-23T16:39:10.398Z,10.88
2019-02-23T16:41:44.349Z,9.85
2019-02-23T16:44:12.885Z,10.50
2019-02-23T16:46:41.325Z,9.13
2019-02-23T16:49:10.419Z,8.00
2019-02-23T16:51:39.204Z,8.68
2019-02-23T16:54:07.887Z,9.10
2019-02-23T16:56:36.462Z,8.00
2019-02-23T16:59:05.163Z,8.03
2019-02-23T17:01:33.605Z,7.40
2019-02-23T17:04:02.417Z,8.28
2019-02-23T17:06:32.854Z,7.90
2019-02-23T17:09:01.602Z,7.70
2019-02-23T17:11:30.006Z,7.20
2019-02-23T17:13:58.797Z,7.70
2019-02-23T17:16:27.736Z,7.90
2019-02-23T17:18:56.328Z,7.50
2019-02-23T17:21:25.127Z,8.15
2019-02-23T17:23:54.265Z,8.00
2019-02-23T17:26:22.910Z,7.80
2019-02-23T17:28:51.574Z,6.90
2019-02-23T17:31:20.339Z,9.20
2019-02-23T17:33:48.987Z,8.55
2019-02-23T17:36:17.629Z,10.00
2019-02-23T17:38:46.214Z,9.65
2019-02-23T17:41:14.854Z,8.90
2019-02-23T17:43:43.480Z,8.63
2019-02-23T17:46:12.177Z,8.20
2019-02-23T17:48:40.936Z,8.33
2019-02-23T17:51:09.472Z,9.00
2019-02-23T17:53:38.186Z,8.88
2019-02-23T17:56:12.182Z,11.08
2019-02-23T17:58:37.070Z,9.03
2019-02-23T18:01:05.753Z,11.25
2019-02-23T18:03:34.369Z,10.05
2019-02-23T18:06:02.920Z,11.83
2019-02-23T18:08:31.493Z,11.68
2019-02-23T18:11:00.605Z,9.93
2019-02-23T18:13:29.480Z,9.53
2019-02-23T18:15:58.179Z,11.83
2019-02-23T18:18:26.641Z,9.10
2019-02-23T18:20:55.275Z,8.55
2019-02-23T18:23:24.048Z,10.25
2019-02-23T18:25:52.608Z,8.50
2019-02-23T18:28:21.674Z,9.18
2019-02-23T18:30:50.179Z,9.10
2019-02-23T18:33:18.974Z,9.80
2019-02-23T18:35:47.837Z,10.85
2019-02-23T18:38:16.223Z,10.08
2019-02-23T18:40:44.803Z,9.38
2019-02-23T18:43:13.298Z,9.53
2019-02-23T18:45:47.467Z,9.48
2019-02-23T18:48:12.058Z,8.75
2019-02-23T18:50:40.527Z,9.43
2019-02-23T18:53:09.034Z,9.05
2019-02-23T18:55:41.027Z,9.13
2019-02-23T18:58:07.799Z,8.10
2019-02-23T19:00:36.222Z,8.38
2019-02-23T19:03:04.734Z,7.25
2019-02-23T19:05:38.702Z,7.45
2019-02-23T19:08:06.801Z,8.35
2019-02-23T19:10:35.378Z,9.80
2019-02-23T19:13:04.182Z,11.45
2019-02-23T19:15:33.353Z,10.80
2019-02-23T19:18:01.951Z,9.80
2019-02-23T19:20:30.504Z,9.68
2019-02-23T19:22:58.932Z,10.00
2019-02-23T19:25:27.660Z,8.85
2019-02-23T19:27:56.349Z,9.18
2019-02-23T19:30:24.854Z,9.60
2019-02-23T19:32:53.334Z,9.78
2019-02-23T19:35:22.078Z,9.55
2019-02-23T19:37:50.601Z,12.70
2019-02-23T19:40:19.071Z,11.75
2019-02-23T19:42:47.717Z,13.22
2019-02-23T19:45:16.208Z,12.78
2019-02-23T19:47:44.646Z,10.53
2019-02-23T19:50:25.296Z,10.78
2019-02-23T19:52:53.689Z,10.00
2019-02-23T19:55:22.117Z,9.43
2019-02-23T19:57:50.610Z,10.50
2019-02-23T20:00:19.024Z,9.80
2019-02-23T20:02:47.588Z,12.23
2019-02-23T20:05:15.999Z,13.75
2019-02-23T20:07:44.470Z,13.48
2019-02-23T20:10:13.698Z,14.23
2019-02-23T20:12:42.657Z,13.85
2019-02-23T20:17:59.548Z,12.65
2019-02-23T20:20:28.099Z,13.28
2019-02-23T20:22:57.061Z,16.25
2019-02-23T20:25:25.909Z,11.78
2019-02-23T20:27:54.434Z,12.10
2019-02-23T20:30:22.860Z,11.20
2019-02-23T20:32:51.266Z,11.57
2019-02-23T20:35:19.922Z,10.08
2019-02-23T20:37:49.384Z,11.50
2019-02-23T20:40:17.926Z,12.35
2019-02-23T20:42:46.459Z,12.15
2019-02-23T20:45:15.236Z,12.30
2019-02-23T20:47:43.726Z,12.10
2019-02-23T20:50:12.213Z,12.25
2019-02-23T20:52:40.917Z,10.88
2019-02-23T20:55:09.835Z,11.85
2019-02-23T20:57:38.478Z,12.05
2019-02-23T21:00:11.324Z,11.65
2019-02-23T21:02:39.997Z,12.50
2019-02-23T21:05:13.542Z,11.55
2019-02-23T21:07:42.097Z,12.43
2019-02-23T21:10:11.074Z,12.03
2019-02-23T21:12:39.954Z,11.75
2019-02-23T21:15:10.359Z,10.50
2019-02-23T21:17:39.222Z,11.93
2019-02-23T21:20:09.216Z,10.68
2019-02-23T21:22:38.041Z,10.90
2019-02-23T21:25:07.883Z,10.90
2019-02-23T21:27:36.449Z,11.43
2019-02-23T21:30:07.717Z,12.93
2019-02-23T21:32:36.231Z,11.65
2019-02-23T21:35:06.304Z,12.47
2019-02-23T21:37:34.869Z,13.65
2019-02-23T21:40:03.347Z,13.10
2019-02-23T21:42:31.865Z,12.43
2019-02-23T21:45:00.822Z,10.35
2019-02-23T21:47:29.485Z,11.75
2019-02-23T21:49:58.042Z,11.18
2019-02-23T21:52:26.705Z,11.83
2019-02-23T21:54:55.346Z,9.95
2019-02-23T21:57:24.078Z,11.28
2019-02-23T21:59:52.825Z,10.05
2019-02-23T22:02:21.631Z,12.40
2019-02-23T22:04:50.310Z,10.00
2019-02-23T22:07:18.849Z,10.78
2019-02-23T22:09:47.382Z,10.35
2019-02-23T22:12:15.965Z,11.28
2019-02-23T22:14:45.056Z,10.75
2019-02-23T22:17:13.458Z,10.58
2019-02-23T22:19:41.919Z,11.48
2019-02-23T22:22:10.489Z,11.53
2019-02-23T22:24:39.011Z,14.60
2019-02-23T22:27:07.670Z,11.53
2019-02-23T22:29:39.122Z,12.70
2019-02-23T22:32:07.555Z,11.30
2019-02-23T22:34:36.313Z,13.88
2019-02-23T22:37:05.128Z,10.45
2019-02-23T22:39:33.633Z,11.73
2019-02-23T22:42:02.382Z,11.65
2019-02-23T22:47:28.549Z,10.78
2019-02-23T22:50:02.109Z,10.32
2019-02-23T22:52:34.598Z,10.23
2019-02-23T22:57:58.561Z,11.90
2019-02-23T23:00:29.130Z,11.50
2019-02-23T23:02:57.542Z,11.95
2019-02-23T23:05:26.010Z,10.90
2019-02-23T23:07:55.386Z,11.95
2019-02-23T23:10:24.112Z,10.75
2019-02-23T23:12:52.506Z,10.60
2019-02-23T23:15:20.910Z,10.58
2019-02-23T23:17:49.319Z,10.90
2019-02-23T23:20:18.091Z,10.85
2019-02-23T23:22:46.508Z,11.50
2019-02-23T23:25:15.143Z,12.25
2019-02-23T23:27:49.079Z,10.55
2019-02-23T23:30:13.687Z,11.20
2019-02-23T23:32:42.092Z,11.43
2019-02-23T23:35:10.562Z,10.75
2019-02-23T23:37:39.202Z,12.30
2019-02-23T23:40:07.683Z,11.48
2019-02-23T23:42:36.337Z,12.10
2019-02-23T23:45:06.132Z,12.68
2019-02-23T23:47:34.544Z,11.38
2019-02-23T23:50:03.020Z,12.40
2019-02-23T23:52:31.510Z,12.60
2019-02-23T23:54:59.910Z,11.90
2019-02-23T23:57:28.385Z,12.43
2019-02-23T23:59:56.798Z,11.95
